Time;durP1;ratioP1;P1;durP2;ratioP2;P2;SDS_P1;SDS_P2;PMS_P1;PMS_P2;Temp;Humidity;BMP_temperature;BMP_pressure;BME280_temperature;BME280_humidity;BME280_pressure;Samples;Min_cycle;Max_cycle;Signal;HPM_P1;HPM_P2
2023/09/18 00:01:32;;;;;;;;;26.00;16.67;;;;;;;;5089262;27;46971;-79
2023/09/18 00:03:58;;;;;;;;;6.00;4.50;;;;;;;;5089840;27;45427;-79
2023/09/18 00:06:25;;;;;;;;;5.00;4.00;;;;;;;;5084224;27;45402;-78
2023/09/18 00:08:51;;;;;;;;;3.75;3.00;;;;;;;;5085211;27;45880;-77
2023/09/18 00:11:16;;;;;;;;;3.75;3.75;;;;;;;;5075361;27;45721;-78
2023/09/18 00:13:41;;;;;;;;;4.75;3.75;;;;;;;;5088028;27;45911;-79
2023/09/18 00:16:06;;;;;;;;;6.00;5.00;;;;;;;;5074887;27;45539;-77
2023/09/18 00:18:32;;;;;;;;;4.00;4.00;;;;;;;;5085538;27;45412;-78
2023/09/18 00:20:58;;;;;;;;;2.00;2.00;;;;;;;;5076624;27;45799;-78
2023/09/18 00:23:23;;;;;;;;;5.50;5.50;;;;;;;;5086470;27;45667;-79
2023/09/18 00:25:48;;;;;;;;;5.25;5.25;;;;;;;;5084065;27;45477;-79
2023/09/18 00:28:13;;;;;;;;;4.50;4.50;;;;;;;;5087511;27;45540;-80
2023/09/18 00:30:43;;;;;;;;;6.50;6.00;;;;;;;;5086435;27;47109;-80
2023/09/18 00:33:08;;;;;;;;;8.00;5.00;;;;;;;;5077835;27;45749;-80
2023/09/18 00:35:33;;;;;;;;;6.50;4.75;;;;;;;;5090545;27;45748;-79
2023/09/18 00:38:02;;;;;;;;;3.75;3.00;;;;;;;;5085846;27;45772;-80
2023/09/18 00:40:27;;;;;;;;;1.25;1.00;;;;;;;;5082067;27;47208;-80
2023/09/18 00:42:52;;;;;;;;;6.75;6.75;;;;;;;;5088180;27;45436;-81
2023/09/18 00:45:18;;;;;;;;;6.00;3.00;;;;;;;;5093001;27;45634;-79
2023/09/18 00:47:43;;;;;;;;;5.00;4.25;;;;;;;;5090108;27;45759;-80
2023/09/18 00:50:11;;;;;;;;;10.25;6.75;;;;;;;;5085327;27;46088;-79
2023/09/18 00:52:37;;;;;;;;;2.75;2.75;;;;;;;;5091951;27;45471;-79
2023/09/18 00:55:03;;;;;;;;;4.50;4.00;;;;;;;;5091378;27;45793;-79
2023/09/18 00:57:28;;;;;;;;;4.25;2.75;;;;;;;;5077481;27;46259;-79
2023/09/18 00:59:53;;;;;;;;;3.00;3.00;;;;;;;;5081907;27;46081;-79
2023/09/18 01:02:20;;;;;;;;;2.00;2.00;;;;;;;;5088816;27;45794;-80
2023/09/18 01:04:46;;;;;;;;;3.25;1.75;;;;;;;;5080328;27;45787;-79
2023/09/18 01:07:12;;;;;;;;;2.00;1.75;;;;;;;;5082585;27;45980;-78
2023/09/18 01:09:37;;;;;;;;;2.50;2.50;;;;;;;;5076190;27;48105;-79
2023/09/18 01:12:11;;;;;;;;;2.75;1.50;;;;;;;;5086528;27;45836;-79
2023/09/18 01:14:42;;;;;;;;;3.00;2.25;;;;;;;;5079039;27;45687;-78
2023/09/18 01:17:10;;;;;;;;;1.25;1.25;;;;;;;;5080314;27;45504;-79
2023/09/18 01:19:39;;;;;;;;;3.25;2.00;;;;;;;;5081196;27;45709;-78
2023/09/18 01:22:08;;;;;;;;;1.75;1.75;;;;;;;;5078018;27;45950;-79
2023/09/18 01:24:33;;;;;;;;;1.00;1.00;;;;;;;;5084918;27;45472;-79
2023/09/18 01:26:59;;;;;;;;;2.75;1.25;;;;;;;;5083377;27;45762;-77
2023/09/18 01:29:24;;;;;;;;;2.50;1.25;;;;;;;;5085186;27;45729;-79
2023/09/18 01:31:51;;;;;;;;;3.25;3.25;;;;;;;;5083225;27;46073;-81
2023/09/18 01:34:18;;;;;;;;;5.00;1.25;;;;;;;;5077475;27;45382;-79
2023/09/18 01:36:44;;;;;;;;;3.00;1.75;;;;;;;;5088795;27;45493;-79
2023/09/18 01:39:11;;;;;;;;;1.50;1.50;;;;;;;;5090479;27;46985;-79
2023/09/18 01:41:36;;;;;;;;;2.25;2.25;;;;;;;;5083156;27;46044;-78
2023/09/18 01:44:04;;;;;;;;;5.75;3.75;;;;;;;;5078058;27;45705;-80
2023/09/18 01:46:32;;;;;;;;;2.25;1.00;;;;;;;;5090836;27;47328;-80
2023/09/18 01:48:57;;;;;;;;;2.00;2.00;;;;;;;;5080297;27;46307;-81
2023/09/18 01:51:22;;;;;;;;;1.00;1.00;;;;;;;;5081874;27;45415;-81
2023/09/18 01:53:48;;;;;;;;;4.00;1.75;;;;;;;;5090846;27;45538;-81
2023/09/18 01:56:13;;;;;;;;;1.00;1.00;;;;;;;;5083881;27;45989;-79
2023/09/18 01:58:38;;;;;;;;;1.25;1.25;;;;;;;;5089898;27;45567;-79
2023/09/18 02:01:04;;;;;;;;;1.50;1.50;;;;;;;;5090846;27;45710;-80
2023/09/18 02:03:29;;;;;;;;;0.00;0.00;;;;;;;;5098745;27;45917;-80
2023/09/18 02:05:55;;;;;;;;;1.00;1.00;;;;;;;;5094606;27;45726;-79
2023/09/18 02:08:20;;;;;;;;;1.75;1.00;;;;;;;;5094812;27;45570;-80
2023/09/18 02:10:45;;;;;;;;;0.25;0.25;;;;;;;;5096539;27;45490;-80
2023/09/18 02:13:10;;;;;;;;;2.00;2.00;;;;;;;;5080565;27;45464;-79
2023/09/18 02:15:37;;;;;;;;;1.00;1.00;;;;;;;;5097251;27;45744;-79
2023/09/18 02:18:02;;;;;;;;;2.00;1.00;;;;;;;;5092869;27;45373;-81
2023/09/18 02:20:27;;;;;;;;;1.25;0.75;;;;;;;;5079868;27;45789;-80
2023/09/18 02:22:53;;;;;;;;;1.00;1.00;;;;;;;;5083134;27;45338;-80
2023/09/18 02:25:18;;;;;;;;;2.00;1.00;;;;;;;;5089151;27;45958;-79
2023/09/18 02:27:43;;;;;;;;;1.00;1.00;;;;;;;;5086078;27;45333;-79
2023/09/18 02:30:09;;;;;;;;;2.00;2.00;;;;;;;;5087753;27;45492;-80
2023/09/18 02:32:36;;;;;;;;;1.00;1.00;;;;;;;;5086865;27;45393;-80
2023/09/18 02:35:01;;;;;;;;;2.25;2.00;;;;;;;;5089690;27;46627;-79
2023/09/18 02:37:28;;;;;;;;;1.00;1.00;;;;;;;;5082090;27;46460;-79
2023/09/18 02:39:54;;;;;;;;;3.00;2.00;;;;;;;;5093085;27;45343;-80
2023/09/18 02:42:19;;;;;;;;;1.00;1.00;;;;;;;;5082390;27;44751;-80
2023/09/18 02:44:44;;;;;;;;;3.25;2.75;;;;;;;;5094949;27;45692;-80
2023/09/18 02:47:09;;;;;;;;;1.00;1.00;;;;;;;;5091377;27;46295;-79
2023/09/18 02:49:35;;;;;;;;;2.25;2.25;;;;;;;;5093342;27;45441;-79
2023/09/18 02:52:00;;;;;;;;;1.75;1.75;;;;;;;;5108172;27;45212;-79
2023/09/18 02:54:26;;;;;;;;;4.00;1.00;;;;;;;;5095060;27;45986;-81
2023/09/18 02:56:51;;;;;;;;;1.25;1.25;;;;;;;;5094472;27;48518;-80
2023/09/18 02:59:17;;;;;;;;;2.75;2.00;;;;;;;;5109970;27;45037;-80
2023/09/18 03:01:42;;;;;;;;;1.50;1.50;;;;;;;;5106051;27;45338;-80
2023/09/18 03:04:07;;;;;;;;;2.25;2.00;;;;;;;;5097575;27;46024;-79
2023/09/18 03:06:32;;;;;;;;;2.75;2.25;;;;;;;;5099927;27;45487;-80
2023/09/18 03:08:58;;;;;;;;;2.75;2.75;;;;;;;;5103185;27;45356;-79
2023/09/18 03:11:27;;;;;;;;;2.00;2.00;;;;;;;;5098215;27;45475;-78
2023/09/18 03:13:52;;;;;;;;;3.25;1.00;;;;;;;;5087966;27;45434;-80
2023/09/18 03:16:17;;;;;;;;;2.50;2.50;;;;;;;;5087509;27;46156;-81
2023/09/18 03:18:43;;;;;;;;;2.75;2.00;;;;;;;;5085805;27;45510;-80
2023/09/18 03:21:08;;;;;;;;;1.25;1.25;;;;;;;;5078250;27;45407;-80
2023/09/18 03:23:34;;;;;;;;;2.25;1.25;;;;;;;;5100571;27;45741;-81
2023/09/18 03:25:59;;;;;;;;;1.25;1.25;;;;;;;;5095274;27;46469;-81
2023/09/18 03:28:24;;;;;;;;;2.00;2.00;;;;;;;;5088018;27;45616;-80
2023/09/18 03:30:50;;;;;;;;;3.50;3.00;;;;;;;;5098633;27;45620;-79
2023/09/18 03:33:15;;;;;;;;;3.00;2.25;;;;;;;;5098072;27;45377;-81
2023/09/18 03:35:50;;;;;;;;;3.00;2.00;;;;;;;;5096564;27;45488;-81
2023/09/18 03:38:16;;;;;;;;;6.00;3.00;;;;;;;;5081171;27;45705;-81
2023/09/18 03:40:41;;;;;;;;;3.50;2.25;;;;;;;;5081925;27;45694;-82
2023/09/18 03:43:07;;;;;;;;;1.25;1.25;;;;;;;;5090894;27;45825;-79
2023/09/18 03:45:32;;;;;;;;;2.00;2.00;;;;;;;;5081689;27;45856;-80
2023/09/18 03:47:57;;;;;;;;;3.75;3.00;;;;;;;;5090872;27;45420;-79
2023/09/18 03:50:23;;;;;;;;;2.00;1.50;;;;;;;;5093147;27;45360;-79
2023/09/18 03:52:48;;;;;;;;;2.25;2.25;;;;;;;;5084319;27;45374;-81
2023/09/18 03:55:14;;;;;;;;;2.50;2.50;;;;;;;;5087248;27;46467;-81
2023/09/18 03:57:40;;;;;;;;;4.75;2.75;;;;;;;;5094036;27;45821;-81
2023/09/18 04:00:07;;;;;;;;;2.00;2.00;;;;;;;;5080392;27;45557;-82
2023/09/18 04:02:32;;;;;;;;;3.75;2.00;;;;;;;;5093463;27;45753;-80
2023/09/18 04:04:58;;;;;;;;;1.75;1.75;;;;;;;;5084441;27;47641;-78
2023/09/18 04:07:23;;;;;;;;;3.50;2.00;;;;;;;;5088096;27;45581;-79
2023/09/18 04:09:48;;;;;;;;;3.25;3.00;;;;;;;;5071903;27;45619;-82
2023/09/18 04:12:14;;;;;;;;;2.00;2.00;;;;;;;;5089727;27;45512;-79
2023/09/18 04:14:39;;;;;;;;;3.00;1.50;;;;;;;;5092392;27;45828;-79
2023/09/18 04:17:05;;;;;;;;;6.25;3.25;;;;;;;;5078565;27;45610;-80
2023/09/18 04:19:30;;;;;;;;;1.75;1.75;;;;;;;;5073795;27;45739;-80
2023/09/18 04:21:56;;;;;;;;;3.75;2.75;;;;;;;;5089145;27;45564;-80
2023/09/18 04:24:21;;;;;;;;;4.00;4.00;;;;;;;;5091096;27;45810;-80
2023/09/18 04:26:50;;;;;;;;;3.00;3.00;;;;;;;;5087904;27;45406;-79
2023/09/18 04:29:16;;;;;;;;;6.50;4.50;;;;;;;;5080456;27;45501;-79
2023/09/18 04:31:44;;;;;;;;;6.00;6.00;;;;;;;;5087229;27;45715;-81
2023/09/18 04:34:10;;;;;;;;;7.75;6.00;;;;;;;;5084771;27;46181;-78
2023/09/18 04:36:39;;;;;;;;;5.00;5.00;;;;;;;;5087622;27;45802;-81
2023/09/18 04:39:05;;;;;;;;;9.33;9.00;;;;;;;;5080092;27;45327;-80
2023/09/18 04:41:30;;;;;;;;;3.00;3.00;;;;;;;;5076356;27;46781;-75
2023/09/18 04:43:56;;;;;;;;;4.75;3.75;;;;;;;;5077572;27;45822;-76
2023/09/18 04:46:21;;;;;;;;;6.50;6.50;;;;;;;;5079766;27;45555;-75
2023/09/18 04:48:47;;;;;;;;;6.75;6.00;;;;;;;;5084987;27;45496;-75
2023/09/18 04:51:12;;;;;;;;;4.00;4.00;;;;;;;;5083573;27;45966;-78
2023/09/18 04:53:37;;;;;;;;;5.00;4.25;;;;;;;;5090745;27;46245;-79
2023/09/18 04:56:06;;;;;;;;;3.50;3.50;;;;;;;;5076995;27;45686;-76
2023/09/18 04:58:32;;;;;;;;;4.00;4.00;;;;;;;;5081593;27;45789;-77
2023/09/18 05:00:57;;;;;;;;;4.00;4.00;;;;;;;;5084484;27;46936;-75
2023/09/18 05:03:23;;;;;;;;;3.25;3.25;;;;;;;;5083443;27;46106;-80
2023/09/18 05:05:54;;;;;;;;;3.00;3.00;;;;;;;;5083790;27;45938;-82
2023/09/18 05:08:20;;;;;;;;;3.25;3.00;;;;;;;;5078533;27;45513;-77
2023/09/18 05:10:45;;;;;;;;;4.50;4.50;;;;;;;;5079392;27;45746;-78
2023/09/18 05:13:11;;;;;;;;;4.25;3.50;;;;;;;;5079980;27;45847;-76
2023/09/18 05:15:37;;;;;;;;;7.25;4.25;;;;;;;;5080895;27;45466;-79
2023/09/18 05:18:03;;;;;;;;;6.50;3.75;;;;;;;;5078005;27;45481;-75
2023/09/18 05:20:29;;;;;;;;;4.50;2.00;;;;;;;;5073715;27;45654;-75
2023/09/18 05:22:55;;;;;;;;;2.00;2.00;;;;;;;;5083500;27;46967;-76
2023/09/18 05:25:21;;;;;;;;;4.00;4.00;;;;;;;;5081968;27;45519;-79
2023/09/18 05:27:48;;;;;;;;;4.25;4.25;;;;;;;;5075705;27;45528;-77
2023/09/18 05:30:22;;;;;;;;;3.25;3.25;;;;;;;;5082184;27;45791;-76
2023/09/18 05:32:48;;;;;;;;;5.00;3.00;;;;;;;;5082235;27;45661;-77
2023/09/18 05:35:13;;;;;;;;;7.25;5.00;;;;;;;;5090537;27;45366;-77
2023/09/18 05:37:39;;;;;;;;;4.50;4.00;;;;;;;;5074437;27;45891;-78
2023/09/18 05:40:06;;;;;;;;;6.00;4.50;;;;;;;;5075691;27;45509;-77
2023/09/18 05:42:31;;;;;;;;;4.25;4.00;;;;;;;;5085566;27;45816;-76
2023/09/18 05:44:57;;;;;;;;;7.25;4.00;;;;;;;;5076641;27;45743;-77
2023/09/18 05:47:23;;;;;;;;;1.75;1.75;;;;;;;;5087309;27;45674;-76
2023/09/18 05:49:51;;;;;;;;;4.75;4.75;;;;;;;;5079011;27;46379;-74
2023/09/18 05:52:17;;;;;;;;;5.75;4.25;;;;;;;;5073990;27;46453;-76
2023/09/18 05:54:42;;;;;;;;;6.00;4.00;;;;;;;;5073680;27;45469;-79
2023/09/18 05:57:07;;;;;;;;;9.25;6.25;;;;;;;;5081130;27;46402;-76
2023/09/18 05:59:32;;;;;;;;;5.50;3.00;;;;;;;;5086229;27;45934;-76
2023/09/18 06:01:58;;;;;;;;;6.00;5.00;;;;;;;;5082623;27;46218;-75
2023/09/18 06:04:23;;;;;;;;;6.00;4.00;;;;;;;;5084481;27;45484;-77
2023/09/18 06:06:49;;;;;;;;;3.00;3.00;;;;;;;;5082271;27;45468;-78
2023/09/18 06:09:14;;;;;;;;;3.75;3.00;;;;;;;;5092488;27;47165;-76
2023/09/18 06:11:39;;;;;;;;;5.50;5.50;;;;;;;;5094139;27;46117;-78
2023/09/18 06:14:04;;;;;;;;;6.00;5.00;;;;;;;;5083043;27;45929;-82
2023/09/18 06:16:32;;;;;;;;;8.75;4.50;;;;;;;;5082893;27;46158;-76
2023/09/18 06:19:00;;;;;;;;;5.50;5.00;;;;;;;;5076647;27;46821;-77
2023/09/18 06:21:25;;;;;;;;;4.25;4.25;;;;;;;;5079839;27;46049;-75
2023/09/18 06:23:51;;;;;;;;;6.00;4.25;;;;;;;;5082277;27;45835;-78
2023/09/18 06:26:16;;;;;;;;;5.00;5.00;;;;;;;;5080499;27;45692;-77
2023/09/18 06:28:42;;;;;;;;;6.00;4.00;;;;;;;;5082610;27;47174;-75
2023/09/18 06:31:07;;;;;;;;;8.75;6.00;;;;;;;;5085102;27;46485;-76
2023/09/18 06:33:32;;;;;;;;;5.75;5.00;;;;;;;;5083978;27;46761;-78
2023/09/18 06:35:59;;;;;;;;;6.25;5.25;;;;;;;;5088520;27;46143;-77
2023/09/18 06:38:24;;;;;;;;;5.50;4.75;;;;;;;;5087735;27;45601;-78
2023/09/18 06:40:50;;;;;;;;;7.00;7.00;;;;;;;;5079622;27;45444;-76
2023/09/18 06:43:15;;;;;;;;;5.50;5.00;;;;;;;;5091338;27;45744;-77
2023/09/18 06:45:40;;;;;;;;;5.25;5.25;;;;;;;;5097132;27;45693;-84
2023/09/18 06:48:06;;;;;;;;;6.00;6.00;;;;;;;;5080560;27;45817;-75
2023/09/18 06:50:31;;;;;;;;;9.25;5.25;;;;;;;;5079279;27;46321;-78
2023/09/18 06:52:56;;;;;;;;;7.00;5.50;;;;;;;;5075831;27;45777;-75
2023/09/18 06:55:22;;;;;;;;;7.50;6.50;;;;;;;;5079275;27;45812;-80
2023/09/18 06:57:48;;;;;;;;;4.25;4.25;;;;;;;;5078006;27;45486;-76
2023/09/18 07:00:15;;;;;;;;;5.25;5.25;;;;;;;;5075840;27;46193;-76
2023/09/18 07:02:40;;;;;;;;;5.50;4.25;;;;;;;;5084309;27;45960;-76
2023/09/18 07:05:06;;;;;;;;;11.00;5.25;;;;;;;;5077025;27;45943;-76
2023/09/18 07:07:32;;;;;;;;;5.75;5.75;;;;;;;;5077717;27;45878;-77
2023/09/18 07:09:57;;;;;;;;;13.25;11.00;;;;;;;;5082022;27;46008;-75
2023/09/18 07:12:23;;;;;;;;;8.50;8.50;;;;;;;;5082866;27;45544;-78
2023/09/18 07:14:48;;;;;;;;;3.75;3.25;;;;;;;;5087255;27;45482;-76
2023/09/18 07:17:13;;;;;;;;;6.75;5.75;;;;;;;;5082113;27;45579;-77
2023/09/18 07:19:39;;;;;;;;;9.50;8.00;;;;;;;;5082380;27;45468;-77
2023/09/18 07:22:04;;;;;;;;;5.00;5.00;;;;;;;;5086597;27;45468;-77
2023/09/18 07:24:29;;;;;;;;;7.00;7.00;;;;;;;;5085111;27;45537;-76
2023/09/18 07:26:55;;;;;;;;;6.00;4.75;;;;;;;;5083960;27;45691;-77
2023/09/18 07:29:20;;;;;;;;;5.00;5.00;;;;;;;;5079112;27;47563;-77
2023/09/18 07:31:46;;;;;;;;;5.50;4.50;;;;;;;;5075555;27;45587;-77
2023/09/18 07:34:12;;;;;;;;;5.75;5.75;;;;;;;;5075418;27;45740;-79
2023/09/18 07:36:37;;;;;;;;;6.00;4.75;;;;;;;;5081067;27;45441;-77
2023/09/18 07:39:04;;;;;;;;;7.75;5.50;;;;;;;;5094553;27;45459;-77
2023/09/18 07:41:29;;;;;;;;;5.25;5.25;;;;;;;;5083464;27;45837;-77
2023/09/18 07:43:54;;;;;;;;;8.75;6.75;;;;;;;;5094688;27;45496;-77
2023/09/18 07:46:19;;;;;;;;;6.75;6.00;;;;;;;;5094844;27;45781;-76
2023/09/18 07:48:45;;;;;;;;;5.75;4.00;;;;;;;;5094640;27;45542;-77
2023/09/18 07:51:11;;;;;;;;;5.75;5.00;;;;;;;;5094714;27;45548;-78
2023/09/18 07:53:36;;;;;;;;;6.75;6.75;;;;;;;;5083438;27;45351;-75
2023/09/18 07:56:02;;;;;;;;;6.00;6.00;;;;;;;;5093048;27;45401;-78
2023/09/18 07:58:30;;;;;;;;;6.00;6.00;;;;;;;;5095265;27;46433;-75
2023/09/18 08:00:57;;;;;;;;;7.25;6.75;;;;;;;;5095693;27;45451;-78
2023/09/18 08:03:22;;;;;;;;;7.75;6.00;;;;;;;;5088813;27;45455;-77
2023/09/18 08:05:49;;;;;;;;;9.00;8.00;;;;;;;;5094655;27;45592;-76
2023/09/18 08:08:15;;;;;;;;;7.25;5.25;;;;;;;;5093916;27;47515;-81
2023/09/18 08:10:41;;;;;;;;;4.50;4.50;;;;;;;;5095317;27;45714;-75
2023/09/18 08:13:06;;;;;;;;;8.75;6.25;;;;;;;;5095106;27;45735;-77
2023/09/18 08:15:32;;;;;;;;;4.25;4.25;;;;;;;;5089554;27;45438;-76
2023/09/18 08:17:58;;;;;;;;;9.00;4.75;;;;;;;;5087401;27;47285;-78
2023/09/18 08:20:23;;;;;;;;;6.75;6.75;;;;;;;;5082682;27;46529;-81
2023/09/18 08:22:50;;;;;;;;;6.00;5.25;;;;;;;;5093364;27;45419;-79
2023/09/18 08:25:15;;;;;;;;;7.50;5.00;;;;;;;;5080442;27;45524;-79
2023/09/18 08:27:41;;;;;;;;;6.25;5.75;;;;;;;;5093676;27;46481;-76
2023/09/18 08:30:07;;;;;;;;;5.00;5.00;;;;;;;;5092982;27;45597;-81
2023/09/18 08:32:33;;;;;;;;;7.25;5.25;;;;;;;;5099834;27;45299;-80
2023/09/18 08:35:01;;;;;;;;;6.75;4.00;;;;;;;;5095431;27;45594;-79
2023/09/18 08:37:26;;;;;;;;;5.00;4.25;;;;;;;;5101321;27;45439;-75
2023/09/18 08:39:52;;;;;;;;;6.75;5.25;;;;;;;;5099219;27;45588;-80
2023/09/18 08:42:18;;;;;;;;;4.75;4.75;;;;;;;;5098015;27;45650;-78
2023/09/18 08:44:45;;;;;;;;;6.75;3.25;;;;;;;;5084224;27;45847;-82
2023/09/18 08:47:15;;;;;;;;;4.25;4.25;;;;;;;;5095901;27;45531;-80
2023/09/18 08:49:41;;;;;;;;;4.00;4.00;;;;;;;;5095642;27;45420;-80
2023/09/18 08:52:06;;;;;;;;;5.75;5.00;;;;;;;;5086632;27;45385;-75
2023/09/18 08:54:33;;;;;;;;;6.00;4.75;;;;;;;;5080550;27;46629;-80
2023/09/18 08:56:58;;;;;;;;;5.50;4.25;;;;;;;;5095058;27;45691;-76
2023/09/18 08:59:24;;;;;;;;;7.00;5.00;;;;;;;;5089172;27;45400;-81
2023/09/18 09:01:50;;;;;;;;;6.25;4.00;;;;;;;;5081395;27;45755;-76
2023/09/18 09:04:15;;;;;;;;;5.00;5.00;;;;;;;;5093544;27;45650;-82
2023/09/18 09:06:41;;;;;;;;;4.00;3.50;;;;;;;;5102350;27;45620;-76
2023/09/18 09:09:07;;;;;;;;;3.00;3.00;;;;;;;;5091224;27;45523;-77
2023/09/18 09:11:33;;;;;;;;;3.50;3.50;;;;;;;;5092896;27;45480;-80
2023/09/18 09:14:09;;;;;;;;;6.75;5.00;;;;;;;;5091287;27;46496;-76
2023/09/18 09:16:34;;;;;;;;;6.00;5.75;;;;;;;;5093310;27;45369;-77
2023/09/18 09:19:00;;;;;;;;;4.25;3.75;;;;;;;;5089326;27;45398;-75
2023/09/18 09:21:38;;;;;;;;;4.75;3.50;;;;;;;;5092233;27;45330;-79
2023/09/18 09:24:03;;;;;;;;;4.50;3.00;;;;;;;;5089896;27;45477;-75
2023/09/18 09:26:29;;;;;;;;;3.25;3.25;;;;;;;;5103267;27;45384;-79
2023/09/18 09:28:55;;;;;;;;;4.00;3.50;;;;;;;;5103842;27;45554;-79
2023/09/18 09:31:24;;;;;;;;;4.75;4.00;;;;;;;;5090901;27;45401;-79
2023/09/18 09:33:53;;;;;;;;;5.00;4.00;;;;;;;;5103818;27;46221;-79
2023/09/18 09:36:19;;;;;;;;;3.00;3.00;;;;;;;;5103260;27;47442;-81
2023/09/18 09:38:45;;;;;;;;;4.25;3.50;;;;;;;;5094917;27;45463;-81
2023/09/18 09:41:15;;;;;;;;;2.00;1.00;;;;;;;;5085584;27;45513;-79
2023/09/18 09:43:42;;;;;;;;;3.00;3.00;;;;;;;;5094726;27;45687;-79
2023/09/18 09:46:14;;;;;;;;;4.00;4.00;;;;;;;;5085201;27;45835;-78
2023/09/18 09:48:40;;;;;;;;;3.20;3.00;;;;;;;;5095241;27;45352;-81
2023/09/18 09:51:05;;;;;;;;;3.25;3.25;;;;;;;;5085110;27;45284;-82
2023/09/18 09:53:47;;;;;;;;;2.75;2.75;;;;;;;;5091306;27;47113;-80
2023/09/18 09:56:12;;;;;;;;;3.25;3.00;;;;;;;;5083723;27;48111;-79
2023/09/18 09:58:41;;;;;;;;;4.00;4.00;;;;;;;;5092123;27;45327;-79
2023/09/18 10:01:10;;;;;;;;;2.00;2.00;;;;;;;;5094048;27;45477;-81
2023/09/18 10:03:36;;;;;;;;;5.25;4.50;;;;;;;;5095140;27;45323;-81
2023/09/18 10:06:03;;;;;;;;;6.00;4.00;;;;;;;;5091182;27;45837;-83
2023/09/18 10:08:30;;;;;;;;;5.40;3.40;;;;;;;;5086485;27;45533;-81
2023/09/18 10:10:58;;;;;;;;;3.50;3.50;;;;;;;;5096433;27;45413;-82
2023/09/18 10:13:47;;;;;;;;;3.25;3.25;;;;;;;;5086539;27;46123;-82
2023/09/18 10:16:25;;;;;;;;;3.00;3.00;;;;;;;;5088263;27;47770;-81
2023/09/18 10:19:10;;;;;;;;;2.20;2.20;;;;;;;;5084463;27;45449;-81
2023/09/18 10:21:48;;;;;;;;;4.00;3.00;;;;;;;;5093088;27;44862;-82
2023/09/18 10:24:13;;;;;;;;;3.00;2.00;;;;;;;;5101446;27;46023;-81
2023/09/18 10:26:44;;;;;;;;;2.25;2.25;;;;;;;;5090866;27;46100;-84
2023/09/18 10:29:12;;;;;;;;;2.40;2.40;;;;;;;;5096193;27;45395;-83
2023/09/18 10:31:40;;;;;;;;;2.75;2.75;;;;;;;;5100904;27;45748;-81
2023/09/18 10:34:06;;;;;;;;;3.25;3.00;;;;;;;;5089265;27;45459;-80
2023/09/18 10:36:32;;;;;;;;;3.00;3.00;;;;;;;;5080958;27;47614;-80
2023/09/18 10:39:01;;;;;;;;;1.00;1.00;;;;;;;;5094063;27;45467;-81
2023/09/18 10:41:27;;;;;;;;;4.50;3.00;;;;;;;;5095302;27;45514;-81
2023/09/18 10:43:53;;;;;;;;;3.00;3.00;;;;;;;;5095470;27;46152;-82
2023/09/18 10:46:19;;;;;;;;;2.00;2.00;;;;;;;;5083596;27;45338;-81
2023/09/18 10:48:46;;;;;;;;;3.00;3.00;;;;;;;;5086015;27;45929;-83
2023/09/18 10:51:13;;;;;;;;;3.00;2.00;;;;;;;;5094830;27;45501;-83
2023/09/18 10:53:39;;;;;;;;;2.00;2.00;;;;;;;;5092840;27;46430;-82
2023/09/18 10:56:04;;;;;;;;;2.00;2.00;;;;;;;;5097819;27;45650;-81
2023/09/18 10:58:30;;;;;;;;;3.00;2.00;;;;;;;;5097713;27;45755;-82
2023/09/18 11:00:57;;;;;;;;;2.25;2.25;;;;;;;;5092106;27;45772;-82
2023/09/18 11:03:23;;;;;;;;;3.50;2.00;;;;;;;;5079818;27;45489;-83
2023/09/18 11:06:04;;;;;;;;;3.00;3.00;;;;;;;;5087047;27;45526;-81
2023/09/18 11:08:35;;;;;;;;;2.60;2.60;;;;;;;;5081720;27;45414;-83
2023/09/18 11:11:11;;;;;;;;;3.00;3.00;;;;;;;;5084001;27;45675;-83
2023/09/18 11:13:45;;;;;;;;;3.00;3.00;;;;;;;;5094044;27;45745;-80
2023/09/18 11:16:15;;;;;;;;;3.75;3.00;;;;;;;;5095445;27;45435;-81
2023/09/18 11:18:40;;;;;;;;;3.00;2.00;;;;;;;;5093468;27;45515;-80
2023/09/18 11:21:10;;;;;;;;;3.75;3.00;;;;;;;;5087735;27;45767;-81
2023/09/18 11:23:42;;;;;;;;;1.00;1.00;;;;;;;;5091002;27;45557;-81
2023/09/18 11:26:08;;;;;;;;;3.00;3.00;;;;;;;;5086100;27;46213;-80
2023/09/18 11:28:33;;;;;;;;;1.50;1.50;;;;;;;;5094717;27;45702;-80
2023/09/18 11:31:00;;;;;;;;;2.00;2.00;;;;;;;;5093811;27;45528;-81
2023/09/18 11:33:34;;;;;;;;;1.00;1.00;;;;;;;;5095590;27;45805;-81
2023/09/18 11:36:22;;;;;;;;;4.00;2.00;;;;;;;;5094912;27;46208;-82
2023/09/18 11:38:51;;;;;;;;;2.00;2.00;;;;;;;;5091917;27;45429;-80
2023/09/18 11:41:27;;;;;;;;;2.00;2.00;;;;;;;;5092507;27;45511;-79
2023/09/18 11:44:19;;;;;;;;;1.00;1.00;;;;;;;;5085659;27;45544;-81
2023/09/18 11:46:50;;;;;;;;;2.50;2.50;;;;;;;;5085173;27;47355;-80
2023/09/18 11:49:20;;;;;;;;;2.75;2.50;;;;;;;;5097247;27;45433;-81
2023/09/18 11:51:46;;;;;;;;;1.25;1.25;;;;;;;;5085797;27;46027;-80
2023/09/18 11:54:11;;;;;;;;;2.50;2.50;;;;;;;;5092880;27;45946;-80
2023/09/18 11:56:39;;;;;;;;;3.00;1.50;;;;;;;;5095841;27;45772;-80
2023/09/18 11:59:06;;;;;;;;;1.00;1.00;;;;;;;;5095951;27;45430;-80
2023/09/18 12:01:35;;;;;;;;;6.50;3.00;;;;;;;;5092010;27;45903;-80
2023/09/18 12:04:01;;;;;;;;;3.50;2.00;;;;;;;;5096827;27;45794;-81
2023/09/18 12:06:26;;;;;;;;;5.75;2.25;;;;;;;;5087929;27;46533;-80
2023/09/18 12:08:52;;;;;;;;;2.00;2.00;;;;;;;;5083067;27;45861;-80
2023/09/18 12:11:19;;;;;;;;;3.00;2.00;;;;;;;;5082308;27;45612;-79
2023/09/18 12:13:46;;;;;;;;;4.00;3.00;;;;;;;;5089846;27;45468;-81
2023/09/18 12:16:12;;;;;;;;;2.50;2.50;;;;;;;;5089510;27;47023;-80
2023/09/18 12:18:44;;;;;;;;;1.00;1.00;;;;;;;;5094566;27;45456;-82
2023/09/18 12:21:10;;;;;;;;;1.00;0.00;;;;;;;;5087717;27;45693;-80
2023/09/18 12:23:39;;;;;;;;;3.75;2.25;;;;;;;;5100024;27;45440;-79
2023/09/18 12:26:06;;;;;;;;;4.00;3.00;;;;;;;;5094785;27;45675;-80
2023/09/18 12:28:32;;;;;;;;;2.00;2.00;;;;;;;;5089047;27;45621;-81
2023/09/18 12:30:58;;;;;;;;;2.25;2.25;;;;;;;;5082266;27;45924;-80
2023/09/18 12:33:24;;;;;;;;;2.00;2.00;;;;;;;;5087268;27;45872;-82
2023/09/18 12:35:49;;;;;;;;;2.00;2.00;;;;;;;;5075073;27;45402;-83
2023/09/18 12:38:26;;;;;;;;;2.00;1.00;;;;;;;;5086857;27;46159;-81
2023/09/18 12:40:52;;;;;;;;;1.00;1.00;;;;;;;;5080019;27;45606;-82
2023/09/18 12:43:18;;;;;;;;;2.50;2.50;;;;;;;;5081591;27;45793;-82
2023/09/18 12:45:44;;;;;;;;;2.25;2.25;;;;;;;;5079155;27;45603;-81
2023/09/18 12:48:10;;;;;;;;;2.00;2.00;;;;;;;;5095549;27;45773;-80
2023/09/18 12:50:35;;;;;;;;;4.00;3.00;;;;;;;;5080461;27;45416;-80
2023/09/18 12:53:10;;;;;;;;;3.25;3.25;;;;;;;;5091190;27;45654;-82
2023/09/18 12:55:36;;;;;;;;;3.00;2.75;;;;;;;;5094034;27;45463;-80
2023/09/18 12:58:05;;;;;;;;;6.00;2.00;;;;;;;;5094773;27;45739;-81
2023/09/18 13:00:31;;;;;;;;;1.00;1.00;;;;;;;;5094994;27;45428;-81
2023/09/18 13:02:57;;;;;;;;;2.50;2.00;;;;;;;;5094547;27;45481;-81
2023/09/18 13:05:27;;;;;;;;;2.00;2.00;;;;;;;;5092545;27;46141;-80
2023/09/18 13:07:53;;;;;;;;;1.50;1.50;;;;;;;;5082468;27;45430;-81
2023/09/18 13:10:21;;;;;;;;;2.25;2.25;;;;;;;;5077776;27;44920;-81
2023/09/18 13:12:50;;;;;;;;;3.00;2.00;;;;;;;;5080166;27;46566;-81
2023/09/18 13:15:24;;;;;;;;;4.50;1.75;;;;;;;;5091807;27;45645;-81
2023/09/18 13:17:50;;;;;;;;;2.40;2.40;;;;;;;;5084731;27;45614;-82
2023/09/18 13:20:28;;;;;;;;;2.50;2.00;;;;;;;;5080949;27;45728;-81
2023/09/18 13:22:54;;;;;;;;;2.00;2.00;;;;;;;;5087244;27;46021;-81
2023/09/18 13:25:24;;;;;;;;;3.00;3.00;;;;;;;;5089367;27;47106;-82
2023/09/18 13:27:50;;;;;;;;;2.00;2.00;;;;;;;;5084670;27;45489;-74
2023/09/18 13:30:17;;;;;;;;;2.00;2.00;;;;;;;;5082156;27;45433;-77
2023/09/18 13:32:43;;;;;;;;;3.00;3.00;;;;;;;;5089076;27;45699;-72
2023/09/18 13:35:11;;;;;;;;;4.75;2.25;;;;;;;;5093266;27;47250;-73
2023/09/18 13:37:37;;;;;;;;;2.50;2.50;;;;;;;;5082896;27;45474;-74
2023/09/18 13:40:02;;;;;;;;;5.00;5.00;;;;;;;;5077493;27;45550;-74
2023/09/18 13:42:30;;;;;;;;;4.75;4.50;;;;;;;;5092539;27;45567;-73
2023/09/18 13:44:55;;;;;;;;;3.00;1.75;;;;;;;;5089182;27;45593;-72
2023/09/18 13:47:21;;;;;;;;;2.00;2.00;;;;;;;;5089391;27;45275;-73
2023/09/18 13:49:47;;;;;;;;;2.00;2.00;;;;;;;;5085763;27;45532;-75
2023/09/18 13:52:12;;;;;;;;;2.00;2.00;;;;;;;;5087438;27;45774;-75
2023/09/18 13:54:37;;;;;;;;;1.00;1.00;;;;;;;;5095457;27;46418;-74
2023/09/18 13:57:05;;;;;;;;;1.00;1.00;;;;;;;;5095496;27;45719;-74
2023/09/18 13:59:30;;;;;;;;;1.00;1.00;;;;;;;;5089302;27;45741;-73
2023/09/18 14:01:55;;;;;;;;;0.50;0.50;;;;;;;;5088547;27;45510;-72
2023/09/18 14:04:22;;;;;;;;;5.00;1.00;;;;;;;;5090808;27;46193;-73
2023/09/18 14:06:47;;;;;;;;;1.00;1.00;;;;;;;;5083344;27;45658;-73
2023/09/18 14:09:12;;;;;;;;;1.00;1.00;;;;;;;;5087731;27;45406;-71
2023/09/18 14:11:38;;;;;;;;;0.25;0.25;;;;;;;;5096672;27;45420;-77
2023/09/18 14:14:03;;;;;;;;;1.00;1.00;;;;;;;;5093488;27;47199;-75
2023/09/18 14:16:33;;;;;;;;;1.00;1.00;;;;;;;;5097126;27;45696;-73
2023/09/18 14:18:59;;;;;;;;;1.50;1.00;;;;;;;;5095480;27;45600;-72
2023/09/18 14:21:24;;;;;;;;;1.00;1.00;;;;;;;;5086957;27;45898;-73
2023/09/18 14:23:50;;;;;;;;;2.00;1.00;;;;;;;;5087625;27;47827;-71
2023/09/18 14:26:15;;;;;;;;;2.50;2.00;;;;;;;;5088787;27;45576;-71
2023/09/18 14:28:40;;;;;;;;;1.00;1.00;;;;;;;;5087473;27;45517;-72
2023/09/18 14:31:05;;;;;;;;;2.00;0.25;;;;;;;;5102621;27;46785;-80
2023/09/18 14:33:31;;;;;;;;;1.50;1.50;;;;;;;;5102852;27;47676;-79
2023/09/18 14:35:56;;;;;;;;;0.00;0.00;;;;;;;;5102932;27;45758;-78
2023/09/18 14:38:21;;;;;;;;;1.75;1.00;;;;;;;;5099943;27;45499;-79
2023/09/18 14:40:47;;;;;;;;;0.00;0.00;;;;;;;;5093178;27;46003;-77